^^
Datos históricos de la estación: Murcia-Puente Tocinos
Diario Informe para Noviembre 18, 2019 Unidades:  Ingés    Métrico   Ambas
Diario Semanal Mensual Anual
  Máxima: Mínima: Promedio:
Temperatura: 60.4 °F 49.6 °F 53.8 °F
Punto de rocio: 49.8 °F 34.2 °F 41 °F
Humedad: 94% 40.6% 65%
Velocidad viento: 17mph 0mph 6.2mph
Racha viento: 31.1mph - -
Viento- - SO
Presión: 30 in 29.7 in -
Precipitación: 0.2 in    
 
 
Tabla de datos para Noviembre 18, 2019
Hora Temperatura Punto de rocio Presión Viento Velocidad viento Racha viento Humedad Intensidad lluvia(por hora) Nubes
00:04 52.3 °F 42.8 °F 29.8 in NO 1.9 mph 3 mph 70% 0 in
00:09 52.3 °F 42.8 °F 29.8 in NO 1.8 mph 2.4 mph 70% 0 in
00:14 52.3 °F 43 °F 29.8 in NO 1.6 mph 2 mph 70.5% 0 in
00:19 52.5 °F 43.3 °F 29.8 in NO 1.4 mph   71% 0 in
00:24 52.5 °F 43.7 °F 29.8 in NO 0.5 mph 3.1 mph 71.6% 0 in
00:29 52.5 °F 44.1 °F 29.8 in Calm   3.6 mph 72.7% 0 in
00:34 52.5 °F 44.1 °F 29.8 in NO 1.3 mph 4 mph 73% 0.02 in
00:39 52.3 °F 44.1 °F 29.8 in North 2 mph 4.6 mph 73.3% 0.02 in
00:44 52.2 °F 44.6 °F 29.8 in Este 1.9 mph 5.2 mph 75.2% 0.02 in
00:49 52.2 °F 45.1 °F 29.8 in ESE 1.8 mph 5 mph 76.9% 0.02 in
00:54 52 °F 45 °F 29.8 in ESE 2.7 mph 5.8 mph 77.3% 0.02 in
00:59 51.6 °F 45.1 °F 29.8 in Este 3.1 mph 6 mph 78.4% 0.02 in
01:04 51.4 °F 44.8 °F 29.8 in Este 2.6 mph 5 mph 78% 0.02 in
01:09 51.4 °F 45.1 °F 29.8 in ENE 2.4 mph 4.6 mph 79% 0.02 in
01:14 51.4 °F 45.3 °F 29.8 in NO 2 mph 6.9 mph 79.6% 0.02 in
01:19 51.3 °F 45.3 °F 29.8 in NNO 1.8 mph 7 mph 80.5% 0.02 in
01:24 50.9 °F 45.7 °F 29.8 in NO 2.7 mph 5 mph 81.7% 0.02 in
01:29 50.9 °F 45.9 °F 29.8 in North 3.1 mph 5 mph 82.6% 0.02 in
01:34 50.7 °F 45.7 °F 29.8 in NNE 3 mph 5 mph 83.1% 0.02 in
01:39 50.7 °F 46 °F 29.8 in NE 2.9 mph 5.2 mph 83.8% 0 in
01:44 50.5 °F 45.7 °F 29.8 in NE 3.4 mph 6.9 mph 83% 0 in
01:49 50.7 °F 45.5 °F 29.8 in ENE 3.6 mph 7 mph 82.4% 0 in
01:54 50.7 °F 45.5 °F 29.8 in NE 3.6 mph 6 mph 82% 0 in
01:59 51.1 °F 45.7 °F 29.8 in NE 3.6 mph 5 mph 82% 0 in
02:04 51.1 °F 45.9 °F 29.8 in NE 2.4 mph 4 mph 82% 0.01 in
02:09 51.1 °F 45.9 °F 29.8 in ESE 1.8 mph 4.7 mph 82.2% 0.03 in
02:14 50.9 °F 46 °F 29.8 in SE 2.2 mph 5 mph 83.2% 0.03 in
02:19 50.7 °F 46 °F 29.8 in SE 2.4 mph 5 mph 84% 0.03 in
02:24 50.5 °F 46.2 °F 29.8 in SE 2.4 mph 5.8 mph 85.3% 0.03 in
02:29 50.5 °F 46.6 °F 29.8 in SE 2.4 mph 6 mph 86% 0.03 in
02:34 50.5 °F 46.6 °F 29.8 in ESE 2.7 mph 5 mph 86.3% 0.03 in
02:39 50.5 °F 46.8 °F 29.8 in ESE 2.9 mph 5.2 mph 87% 0.03 in
02:44 50.5 °F 46.8 °F 29.8 in ESE 3 mph 5 mph 87% 0.03 in
02:49 50.5 °F 46.8 °F 29.8 in SE 3.1 mph 5.2 mph 87% 0.03 in
02:54 50.5 °F 46.8 °F 29.8 in SSE 2.7 mph 5 mph 87% 0.03 in
02:59 50.5 °F 46.8 °F 29.8 in Oeste 2.4 mph 5.8 mph 87% 0.03 in
03:04 50.5 °F 46.9 °F 29.8 in ONO 2.9 mph 6 mph 87.4% 0.02 in
03:09 50.5 °F 46.9 °F 29.8 in ONO 3.1 mph 6 mph 88% 0.03 in
03:14 50.4 °F 46.9 °F 29.8 in NO 3.4 mph 7.4 mph 88% 0.02 in
03:19 50.2 °F 47.1 °F 29.8 in NO 3.6 mph 7 mph 88.9% 0.02 in
03:24 50.2 °F 46.9 °F 29.8 in ONO 4 mph 7 mph 89% 0.02 in
03:29 50 °F 47.1 °F 29.7 in Oeste 4.3 mph 7 mph 89.6% 0.02 in
03:34 50 °F 47.3 °F 29.7 in ONO 4.3 mph 7 mph 90% 0.03 in
03:39 50.2 °F 47.5 °F 29.8 in ONO 4.3 mph 7.4 mph 90% 0.04 in
03:44 50.4 °F 47.7 °F 29.8 in Oeste 4.6 mph 9.2 mph 90.6% 0.04 in
03:49 50.5 °F 48 °F 29.8 in Oeste 4.7 mph 9 mph 91% 0.07 in
03:54 50.7 °F 48.2 °F 29.8 in Oeste 4.7 mph 9 mph 91% 0.08 in
03:59 50.7 °F 48.4 °F 29.8 in SSO 4.7 mph 6.2 mph 91.8% 0.08 in
04:04 50.9 °F 48.7 °F 29.8 in SSO 3.6 mph 6.2 mph 92% 0.09 in
04:09 50.9 °F 48.7 °F 29.8 in SSE 3.1 mph 8.1 mph 92% 0.07 in
04:14 50.9 °F 48.7 °F 29.8 in SSE 4.5 mph 10.7 mph 92% 0.08 in
04:19 50.5 °F 48.4 °F 29.8 in SSE 5.2 mph 13.8 mph 92% 0.08 in
04:24 50.4 °F 48.2 °F 29.8 in Sur 7.1 mph 14 mph 92.2% 0.08 in
04:29 50.4 °F 48.4 °F 29.8 in Sur 8.1 mph 13 mph 93% 0.09 in
04:34 50.4 °F 48.4 °F 29.8 in Sur 7.3 mph 10 mph 93% 0.09 in
04:39 50.4 °F 48.4 °F 29.8 in Sur 6.9 mph 9.7 mph 93% 0.08 in
04:44 50.5 °F 48.9 °F 29.8 in SSO 6.3 mph 14.5 mph 93.8% 0.08 in
04:49 50.7 °F 49.1 °F 29.8 in SSO 5.9 mph 15 mph 94% 0.09 in
04:54 51.1 °F 49.5 °F 29.8 in SSO 7.7 mph 15 mph 94% 0.07 in
04:59 51.3 °F 49.6 °F 29.8 in SSO 8.7 mph 16.3 mph 94% 0.06 in
05:04 51.4 °F 49.8 °F 29.8 in SSO 8.7 mph 16 mph 94% 0.06 in
05:09 51.4 °F 49.8 °F 29.8 in SSO 8.7 mph 15 mph 94% 0.06 in
05:14 51.6 °F 49.8 °F 29.8 in SSO 9 mph 15 mph 94% 0.06 in
05:19 51.6 °F 49.8 °F 29.8 in SO 9.2 mph 15 mph 93.2% 0.05 in
05:24 51.6 °F 49.6 °F 29.8 in SO 8.9 mph 15 mph 93% 0.05 in
05:29 51.4 °F 49.3 °F 29.7 in SO 8.7 mph 15.2 mph 92.4% 0.04 in
05:34 51.6 °F 49.3 °F 29.7 in SO 8 mph 15 mph 92% 0.04 in
05:39 51.6 °F 49.3 °F 29.7 in SO 7.6 mph 11 mph 91.5% 0.04 in
05:44 51.4 °F 48.9 °F 29.7 in SSO 6.5 mph 9 mph 91% 0.03 in
05:49 51.4 °F 48.7 °F 29.7 in SO 5.9 mph 9.2 mph 90.7% 0.02 in
05:54 51.4 °F 48.6 °F 29.7 in SO 5.6 mph 10.7 mph 90% 0.01 in
05:59 51.4 °F 48.6 °F 29.7 in SO 5.4 mph 11 mph 90% 0.01 in
06:04 51.4 °F 48.4 °F 29.7 in SO 6 mph 10.4 mph 89% 0.01 in
06:09 51.4 °F 48.2 °F 29.8 in SSO 6.2 mph 10.7 mph 88.5% 0.01 in
06:14 51.4 °F 48 °F 29.8 in SSE 6.2 mph 11 mph 88% 0 in
06:19 51.4 °F 48 °F 29.8 in SO 6.2 mph 8.1 mph 88% 0 in
06:24 51.4 °F 48 °F 29.8 in OSO 5.5 mph 8.1 mph 88% 0 in
06:29 51.4 °F 47.8 °F 29.7 in NNO 5.2 mph 8.1 mph 87.9% 0 in
06:34 51.3 °F 47.7 °F 29.7 in North 4.1 mph 6.4 mph 87.7% 0 in
06:39 51.3 °F 47.8 °F 29.7 in OSO 3.6 mph 9.2 mph 88% 0 in
06:44 51.1 °F 47.7 °F 29.7 in OSO 4.7 mph 12.7 mph 87.9% 0 in
06:49 51.3 °F 47.5 °F 29.7 in SO 5.2 mph 13 mph 87% 0 in
06:54 51.3 °F 47.5 °F 29.7 in SO 5.7 mph 9.2 mph 87% 0 in
06:59 51.3 °F 47.3 °F 29.7 in SSO 5.9 mph 10.4 mph 86.1% 0 in
07:04 51.4 °F 47.1 °F 29.7 in SSO 6.6 mph 10.4 mph 84.8% 0 in
07:09 51.4 °F 46.8 °F 29.8 in SSO 6.9 mph 10 mph 83.7% 0 in
07:14 51.6 °F 46.6 °F 29.8 in SSO 5.4 mph 8.1 mph 83% 0 in
07:19 51.6 °F 46.6 °F 29.8 in SSO 4.7 mph 8.1 mph 83% 0 in
07:24 51.6 °F 46.4 °F 29.8 in SO 4.4 mph 7.6 mph 82.4% 0 in
07:29 51.6 °F 46 °F 29.8 in OSO 4.3 mph 11.8 mph 81.2% 0 in
07:34 52 °F 45.5 °F 29.8 in OSO 5.3 mph 13 mph 78.8% 0 in
07:39 52.2 °F 45.1 °F 29.8 in Oeste 5.9 mph 15.2 mph 76.6% 0 in
07:44 52.3 °F 44.6 °F 29.8 in Oeste 6.9 mph 16.3 mph 74.7% 0 in
07:49 52.5 °F 44.4 °F 29.8 in OSO 7.4 mph 16 mph 73.6% 0 in
07:54 52.5 °F 44.2 °F 29.8 in OSO 8.1 mph 14 mph 73% 0 in
07:56 52.7 °F 44.1 °F 29.8 in OSO 8.5 mph 14 mph 72.4% 0 in
14:29 59.9 °F 38.5 °F 29.8 in NO 12.3 mph 16.3 mph 45% 0 in
14:34 60.1 °F 38.8 °F 29.8 in NO 11.4 mph 21.9 mph 45.3% 0 in
14:39 60.1 °F 38.7 °F 29.8 in NO 10.7 mph 22 mph 45% 0 in
14:44 60.3 °F 38.8 °F 29.8 in ONO 10.7 mph 23.5 mph 45% 0 in
14:49 60.3 °F 38.1 °F 29.8 in NO 10.7 mph 23 mph 44% 0 in
14:54 60.3 °F 38.5 °F 29.8 in ONO 12.3 mph 28.4 mph 44.3% 0 in
14:59 60.4 °F 38.3 °F 29.8 in ONO 13.5 mph 29 mph 44% 0 in
15:04 60.3 °F 38.1 °F 29.8 in ONO 14.2 mph 29 mph 44% 0 in
15:09 60.3 °F 38.3 °F 29.8 in ONO 14.7 mph 26 mph 44.2% 0 in
15:14 60.3 °F 38.1 °F 29.8 in ONO 14.3 mph 26.5 mph 44% 0 in
15:19 60.4 °F 38.3 °F 29.8 in Oeste 14 mph 26 mph 44% 0 in
15:24 60.3 °F 38.1 °F 29.8 in ONO 13.7 mph 25.3 mph 43.9% 0 in
15:29 60.3 °F 37.9 °F 29.8 in ONO 13.5 mph 25.3 mph 43.6% 0 in
15:34 60.3 °F 37.6 °F 29.8 in ONO 13.5 mph 26.1 mph 43% 0 in
15:39 60.1 °F 37.6 °F 29.8 in ONO 13.5 mph 26.5 mph 43% 0 in
15:44 60.1 °F 37.4 °F 29.8 in ONO 14.7 mph 26.5 mph 43% 0 in
15:49 60.1 °F 37.6 °F 29.8 in ONO 15.6 mph 26.5 mph 43.3% 0 in
15:54 59.9 °F 37.4 °F 29.9 in Oeste 15.3 mph 26 mph 43.1% 0 in
15:59 59.7 °F 37.2 °F 29.9 in ONO 15.2 mph 31.1 mph 43% 0 in
16:04 59.7 °F 37.6 °F 29.9 in ONO 16.3 mph 31 mph 43.7% 0 in
16:09 59.7 °F 37.6 °F 29.9 in ONO 17 mph 23 mph 43.6% 0 in
16:14 59.7 °F 37.6 °F 29.9 in Oeste 15.3 mph 23 mph 43.8% 0 in
16:19 59.7 °F 37.6 °F 29.9 in Oeste 14 mph 24.2 mph 43.6% 0 in
16:24 59.7 °F 37.8 °F 29.9 in ONO 13.8 mph 24 mph 43.9% 0 in
16:29 59.7 °F 37.8 °F 29.9 in ONO 13.7 mph 21 mph 44% 0 in
16:34 59.7 °F 37.8 °F 29.9 in ONO 11.4 mph 18 mph 43.9% 0 in
16:39 59.7 °F 37.6 °F 29.9 in ONO 9.7 mph 17.3 mph 43.5% 0 in
16:44 59.9 °F 37.9 °F 29.9 in NO 9.4 mph 15.2 mph 44% 0 in
16:49 60.1 °F 37.6 °F 29.9 in ONO 9.2 mph 20.7 mph 43.3% 0 in
16:54 59.9 °F 36.7 °F 29.9 in ONO 10.1 mph 26.5 mph 41.8% 0 in
16:59 59.7 °F 36.1 °F 29.9 in ONO 10.7 mph 26 mph 41.3% 0 in
17:04 59.5 °F 35.6 °F 29.9 in ONO 11.6 mph 21.3 mph 40.6% 0 in
17:09 59.4 °F 35.6 °F 29.9 in ONO 12.3 mph 21 mph 41% 0 in
17:14 59.2 °F 35.4 °F 29.9 in ONO 11.1 mph 19.7 mph 41% 0 in
17:19 58.8 °F 35.2 °F 29.9 in Oeste 10.2 mph 20 mph 41% 0 in
17:24 58.6 °F 35.4 °F 29.9 in Oeste 10.7 mph 20 mph 41.6% 0 in
17:29 58.6 °F 35.6 °F 29.9 in Oeste 11.2 mph 18.5 mph 42% 0 in
17:34 58.5 °F 35.4 °F 29.9 in Oeste 9.6 mph 21.3 mph 42% 0 in
17:39 58.3 °F 35.2 °F 29.9 in Oeste 8.5 mph 21 mph 42% 0 in
17:44 57.9 °F 34.9 °F 29.9 in Oeste 10 mph 21 mph 42% 0 in
17:49 57.9 °F 34.9 °F 29.9 in Oeste 11.2 mph 18.4 mph 41.9% 0 in
17:54 57.7 °F 34.3 °F 29.9 in Oeste 10.9 mph 24.2 mph 41.1% 0 in
17:59 57.6 °F 34.3 °F 29.9 in Oeste 10.7 mph 24.2 mph 41.3% 0 in
18:04 57.6 °F 34.5 °F 29.9 in ONO 12.1 mph 24 mph 42% 0 in
18:09 57.4 °F 34.5 °F 29.9 in Oeste 13 mph 19 mph 42% 0 in
18:14 57.4 °F 34.5 °F 29.9 in Oeste 12.1 mph 20.7 mph 42% 0 in
18:19 57 °F 34.2 °F 29.9 in Oeste 11.4 mph 21 mph 42% 0 in
18:24 57 °F 34.3 °F 29.9 in Oeste 10.1 mph 16 mph 42.5% 0 in
18:29 56.8 °F 34.5 °F 29.9 in Oeste 9.2 mph 15 mph 43% 0 in
18:34 56.8 °F 34.5 °F 29.9 in Oeste 8.3 mph 12.7 mph 43% 0 in
18:39 56.7 °F 34.3 °F 29.9 in Oeste 7.6 mph 14.5 mph 43% 0 in
18:44 56.7 °F 34.3 °F 29.9 in OSO 7.9 mph 15 mph 43% 0 in
18:49 56.7 °F 34.3 °F 29.9 in Oeste 8.1 mph 15 mph 43% 0 in
18:54 56.5 °F 34.2 °F 29.9 in Oeste 7.1 mph 13 mph 43% 0 in
18:59 56.3 °F 34.3 °F 29.9 in Oeste 6.4 mph 10.4 mph 43.7% 0 in
19:04 56.1 °F 34.5 °F 29.9 in Oeste 6.4 mph 10 mph 44% 0 in
19:09 56.1 °F 34.3 °F 29.9 in Oeste 6.4 mph 10.7 mph 43.9% 0 in
19:14 55.9 °F 34.3 °F 29.9 in Oeste 5.4 mph 11 mph 44% 0 in
19:19 55.9 °F 34.3 °F 29.9 in Oeste 4.7 mph 9 mph 44% 0 in
19:24 55.8 °F 34.2 °F 29.9 in OSO 4.1 mph 8 mph 44% 0 in
19:29 55.8 °F 34.5 °F 29.9 in Oeste 3.6 mph 7 mph 44.8% 0 in
19:34 55.6 °F 34.5 °F 29.9 in Oeste 2.9 mph 5 mph 45% 0 in
19:39 55.4 °F 34.3 °F 29.9 in OSO 2.4 mph 7.4 mph 45% 0 in
19:44 55.2 °F 34.3 °F 29.9 in ONO 2.2 mph 7 mph 45.3% 0 in
19:49 55 °F 34.7 °F 29.9 in OSO 2 mph 4.6 mph 46% 0 in
19:54 54.9 °F 34.5 °F 29.9 in SO 2.2 mph 5 mph 46% 0 in
19:59 54.7 °F 34.9 °F 29.9 in SO 2.4 mph 4 mph 47% 0 in
20:04 54.7 °F 34.7 °F 29.9 in Sur 2.2 mph 4.7 mph 47% 0 in
20:09 54.5 °F 34.9 °F 30 in SSE 2 mph 6.9 mph 47.2% 0 in
20:14 54.5 °F 34.7 °F 30 in Sur 3.2 mph 7 mph 47.1% 0 in
20:19 54.3 °F 34.7 °F 30 in SSO 4 mph 6 mph 47.6% 0 in
20:24 54.1 °F 34.7 °F 30 in SO 3.4 mph 6.2 mph 47.5% 0 in
20:29 54.3 °F 34.9 °F 30 in SSO 2.9 mph 6 mph 47.9% 0 in
20:34 54.1 °F 34.9 °F 30 in SSO 3 mph 5 mph 48% 0 in
20:39 54.1 °F 34.9 °F 30 in SSO 3.1 mph 7.4 mph 48% 0 in
20:44 54.1 °F 34.9 °F 30 in SO 3.4 mph 7 mph 48% 0 in
20:49 54.1 °F 34.9 °F 30 in SO 3.6 mph 7 mph 48% 0 in
20:54 54.1 °F 34.9 °F 30 in SSO 3.9 mph 7 mph 48% 0 in
20:59 54.1 °F 34.9 °F 30 in SO 4 mph 6 mph 48% 0 in
21:04 54.1 °F 34.9 °F 30 in SSO 3.5 mph 6.9 mph 48% 0 in
21:09 54.1 °F 34.9 °F 30 in Sur 3.1 mph 7 mph 48% 0 in
21:14 54.1 °F 34.9 °F 30 in SSO 3.6 mph 6.4 mph 48% 0 in
21:19 54.1 °F 34.9 °F 30 in SO 4 mph 8.7 mph 48% 0 in
21:24 54.3 °F 35.1 °F 30 in SO 4 mph 9 mph 48% 0 in
21:29 54.1 °F 35.2 °F 30 in SO 4 mph 10.4 mph 48.6% 0 in
21:34 54 °F 35.2 °F 30 in SO 4.4 mph 10 mph 49% 0 in
21:39 54 °F 35.4 °F 30 in OSO 4.7 mph 7 mph 49.6% 0 in
21:44 53.8 °F 35.6 °F 30 in OSO 4 mph 6.2 mph 50% 0 in
21:49 53.6 °F 35.4 °F 30 in Oeste 3.6 mph 6 mph 50.2% 0 in
21:54 53.4 °F 35.6 °F 30 in OSO 3.3 mph 6.2 mph 51% 0 in
21:59 53.1 °F 36 °F 30 in OSO 3.1 mph 6 mph 51.9% 0 in
22:04 52.9 °F 35.8 °F 30 in Oeste 3 mph 5 mph 52.2% 0 in
22:09 52.9 °F 36.1 °F 30 in Oeste 2.9 mph 5.2 mph 52.9% 0 in
22:14 52.5 °F 36 °F 30 in Oeste 2.9 mph 5.4 mph 53% 0 in
22:19 52.3 °F 36.1 °F 30 in Oeste 2.9 mph 6 mph 53.7% 0 in
22:24 52.2 °F 36.1 °F 30 in Oeste 2.9 mph 5.2 mph 54% 0 in
22:29 52.2 °F 36.1 °F 30 in Oeste 2.9 mph 5 mph 54.3% 0 in
22:34 52 °F 36.1 °F 30 in Oeste 2.6 mph 5 mph 54.8% 0 in
22:39 51.8 °F 36.1 °F 30 in ONO 2.4 mph 5 mph 55% 0 in
22:44 51.6 °F 36.1 °F 30 in Oeste 2.4 mph 5 mph 55.2% 0 in
22:49 51.4 °F 36.5 °F 30 in Oeste 2.4 mph 5 mph 56.3% 0 in
22:54 51.3 °F 36.9 °F 30 in SO 1.9 mph 5.2 mph 57.8% 0 in
22:59 50.7 °F 36.7 °F 30 in SSE 1.4 mph 6.2 mph 58.7% 0 in
23:04 50.4 °F 36.5 °F 30 in Sur 3 mph 6 mph 59.1% 0 in
23:09 50.2 °F 36.7 °F 30 in SSE 4 mph 6.9 mph 60% 0 in
23:14 49.8 °F 36.5 °F 30 in Sur 4 mph 7 mph 60% 0 in
23:19 49.6 °F 36.3 °F 30 in Sur 4 mph 6.9 mph 60% 0 in
23:24 50 °F 36.7 °F 30 in Sur 3.8 mph 7 mph 60% 0 in
23:29 50.2 °F 36.7 °F 30 in SO 3.6 mph 9.2 mph 59.7% 0 in
23:34 50.5 °F 36.7 °F 30 in SSO 4 mph 9 mph 58.7% 0 in
23:35 50.9 °F 36.7 °F 30 in SSO 4.3 mph 8.1 mph 58% 0 in
23:44 51.1 °F 36.9 °F 30 in Oeste 5.2 mph 9.7 mph 58% 0 in
23:49 51.1 °F 36.9 °F 30 in SO 5.2 mph 10.4 mph 58% 0 in
23:54 51.1 °F 36.7 °F 30 in OSO 5.2 mph 10.4 mph 58.1% 0 in
23:59 50.7 °F 36.9 °F 30 in OSO 5.2 mph 8 mph 59% 0 in
Murcia-Puente Tocinos, España
Compliments of Weather Underground - 2.5 mb

La estación de MeteoMurcia.com, publica sus datos en los siguientes proyectos:

Weather Underground PWS IMURCIAP2 Meteoclimatic www.awekas.at

W3Counter
Web Analytics